< Typhoon 195315 1953 Season Typhoon 195317 >
Typhoon 195316 (VIOLA)
General InformationTrack Information on Google Maps || Disaster Info.ResourceGoogle EarthGE AnimationAtom FeedGeoJSON
Detalied Best Track (Time Zone = UTC)
Year Month Day Hour Lat. Long. Pressure (hPa) Wind (kt) Class Image Chart
1953 10 1 18 18.7 111.8 1008 0 2 -- Chart
1953 10 2 00 19.5 113.5 1008 0 2 -- Chart
1953 10 2 06 20.7 114.8 1008 0 2 -- Chart
1953 10 2 12 20.8 115.4 1008 0 2 -- Chart
1953 10 2 18 20.9 115.8 1008 0 2 -- Chart
1953 10 3 00 21.0 116.4 1005 0 2 -- Chart
1953 10 3 06 21.3 118.1 1005 0 2 -- Chart
1953 10 3 12 21.8 120.1 1004 0 2 -- Chart
1953 10 3 18 22.3 122.3 1004 0 2 -- Chart
1953 10 4 00 22.8 124.7 1002 0 2 -- Chart
1953 10 4 06 23.2 126.0 1002 0 2 -- Chart
1953 10 4 12 23.1 127.6 1000 0 2 -- Chart
1953 10 4 18 22.7 129.0 1000 0 2 -- Chart
1953 10 5 00 22.5 130.4 967 0 9 -- Chart
1953 10 5 06 22.8 132.5 967 0 9 -- Chart
1953 10 5 12 23.7 134.5 970 0 9 -- Chart
1953 10 5 18 24.9 136.8 970 0 9 -- Chart
1953 10 6 00 26.2 138.9 977 0 9 -- Chart
1953 10 6 06 27.4 141.8 977 0 9 -- Chart
1953 10 6 12 27.5 144.1 980 0 9 -- Chart
1953 10 6 18 27.4 145.4 980 0 9 -- Chart
1953 10 7 00 28.4 147.2 985 0 9 -- Chart
1953 10 7 06 29.9 149.9 985 0 9 -- Chart
1953 10 7 12 31.2 152.8 990 0 9 -- Chart
1953 10 7 18 31.8 154.0 1000 0 2 -- Chart
1953 10 8 00 32.9 155.3 1000 0 6 -- Chart
1953 10 8 06 34.1 157.1 1000 0 6 -- Chart
1953 10 8 12 35.0 158.5 1000 0 6 -- Chart
1953 10 8 18 34.9 161.1 1002 0 6 -- Chart
1953 10 9 00 36.0 163.0 1008 0 6 -- Chart
1953 10 9 06 36.8 164.8 1008 0 6 -- Chart
1953 10 9 12 37.3 166.3 1010 0 6 -- Chart
1953 10 9 18 38.8 169.0 1012 0 6 -- Chart
1953 10 10 00 40.0 173.6 1016 0 6 -- Chart
1953 10 10 06 40.8 177.0 1014 0 6 -- Chart
1953 10 10 12 40.9 179.4 1016 0 6 -- Chart
1953 10 10 18 41.0 182.0 1016 0 6 -- Chart
Japan Meteorological Agency Best Track Data | Correction Date : 1991-07-16
< Typhoon 195315 1953 Season Typhoon 195317 >

Help